Time;durP1;ratioP1;P1;durP2;ratioP2;P2;SDS_P1;SDS_P2;PMS_P1;PMS_P2;Temp;Humidity;BMP_temperature;BMP_pressure;BME280_temperature;BME280_humidity;BME280_pressure;Samples;Min_cycle;Max_cycle;Signal;HPM_P1;HPM_P2
2023/12/03 00:01:44;;;;;;;59.55;27.48;;;;;;;2.37;100.00;98743.03;5077686;28;20051;-84
2023/12/03 00:04:28;;;;;;;53.47;26.92;;;;;;;2.42;100.00;98738.22;5077890;28;20090;-83
2023/12/03 00:07:12;;;;;;;68.38;32.13;;;;;;;2.30;100.00;98736.81;5074689;28;20035;-82
2023/12/03 00:09:57;;;;;;;59.70;28.35;;;;;;;2.33;100.00;98739.09;5078616;28;20135;-83
2023/12/03 00:12:41;;;;;;;57.97;27.75;;;;;;;2.18;100.00;98725.06;5075105;28;20042;-83
2023/12/03 00:15:25;;;;;;;56.78;27.92;;;;;;;2.31;100.00;98730.66;5077462;28;20035;-83
2023/12/03 00:18:09;;;;;;;54.08;26.33;;;;;;;2.25;100.00;98731.25;5076406;28;20047;-83
2023/12/03 00:20:53;;;;;;;51.60;25.85;;;;;;;2.22;100.00;98732.34;5084794;28;20047;-84
2023/12/03 00:23:37;;;;;;;50.75;27.10;;;;;;;2.31;100.00;98733.25;5081799;28;20062;-82
2023/12/03 00:26:21;;;;;;;54.17;27.95;;;;;;;2.30;100.00;98726.44;5078750;28;20449;-83
2023/12/03 00:29:05;;;;;;;54.45;27.65;;;;;;;2.39;100.00;98722.97;5079815;28;20400;-82
2023/12/03 00:31:51;;;;;;;52.85;26.70;;;;;;;2.28;100.00;98725.78;5076597;28;20090;-83
2023/12/03 00:34:36;;;;;;;48.95;26.10;;;;;;;2.39;100.00;98722.97;5082476;28;20132;-81
2023/12/03 00:37:20;;;;;;;52.05;26.00;;;;;;;2.27;100.00;98718.97;5080906;28;20047;-83
2023/12/03 00:40:04;;;;;;;54.13;26.65;;;;;;;2.42;100.00;98707.13;5079387;28;20071;-82
2023/12/03 00:42:49;;;;;;;54.13;26.35;;;;;;;2.18;100.00;98704.34;5083390;28;20043;-82
2023/12/03 00:45:33;;;;;;;55.22;25.33;;;;;;;2.06;100.00;98689.03;5085415;28;20055;-82
2023/12/03 00:48:18;;;;;;;50.90;24.80;;;;;;;2.12;100.00;98701.34;5072692;28;20070;-83
2023/12/03 00:51:02;;;;;;;47.08;24.38;;;;;;;2.10;100.00;98692.13;5080596;28;20101;-82
2023/12/03 00:53:46;;;;;;;49.67;23.98;;;;;;;2.28;100.00;98698.13;5081036;28;20043;-81
2023/12/03 00:56:30;;;;;;;51.55;25.77;;;;;;;2.25;100.00;98690.63;5079276;28;20126;-83
2023/12/03 00:59:14;;;;;;;47.38;24.98;;;;;;;2.18;100.00;98689.59;5076120;28;20513;-81
2023/12/03 01:01:58;;;;;;;48.17;24.80;;;;;;;2.25;100.00;98679.47;5077220;28;20079;-81
2023/12/03 01:04:41;;;;;;;51.50;25.45;;;;;;;2.27;100.00;98685.31;5080139;28;20047;-82
2023/12/03 01:07:26;;;;;;;56.88;26.98;;;;;;;2.24;100.00;98675.25;5084098;28;20051;-83
2023/12/03 01:10:10;;;;;;;62.03;28.73;;;;;;;2.19;100.00;98664.53;5084899;28;20156;-81
2023/12/03 01:12:54;;;;;;;71.78;30.40;;;;;;;2.15;100.00;98664.00;5073573;28;20047;-83
2023/12/03 01:15:37;;;;;;;69.70;29.25;;;;;;;2.28;100.00;98663.63;5076555;28;20036;-82
2023/12/03 01:18:22;;;;;;;56.17;29.67;;;;;;;2.32;100.00;98664.16;5079732;28;20463;-83
2023/12/03 01:21:06;;;;;;;49.53;25.48;;;;;;;2.25;100.00;98659.53;5079485;28;20120;-82
2023/12/03 01:23:50;;;;;;;56.25;28.30;;;;;;;2.32;100.00;98659.75;5080208;28;20039;-83
2023/12/03 01:26:34;;;;;;;53.70;26.77;;;;;;;2.36;100.00;98653.34;5075599;28;20043;-83
2023/12/03 01:29:18;;;;;;;46.95;25.48;;;;;;;2.42;100.00;98644.13;5080291;28;20075;-83
2023/12/03 01:32:02;;;;;;;53.33;26.73;;;;;;;2.46;100.00;98650.66;5082775;28;20085;-82
2023/12/03 01:34:46;;;;;;;49.03;25.20;;;;;;;2.45;100.00;98643.81;5082453;28;20047;-83
2023/12/03 01:37:30;;;;;;;50.78;27.50;;;;;;;2.37;100.00;98636.00;5078401;28;20043;-82
2023/12/03 01:40:14;;;;;;;55.53;26.83;;;;;;;2.38;100.00;98646.22;5084267;28;20178;-82
2023/12/03 01:42:59;;;;;;;54.20;28.00;;;;;;;2.25;100.00;98646.59;5075168;28;20089;-83
2023/12/03 01:45:45;;;;;;;50.58;27.25;;;;;;;2.26;100.00;98647.44;5080058;28;20108;-83
2023/12/03 01:48:29;;;;;;;59.67;27.10;;;;;;;2.40;100.00;98641.72;5084655;28;20039;-84
2023/12/03 01:51:13;;;;;;;52.40;27.60;;;;;;;2.39;100.00;98636.66;5080758;28;20038;-84
2023/12/03 01:53:58;;;;;;;53.03;26.33;;;;;;;2.46;100.00;98634.28;5084222;28;20066;-82
2023/12/03 01:56:41;;;;;;;54.15;25.80;;;;;;;2.43;100.00;98627.63;5079042;28;20044;-83
2023/12/03 01:59:26;;;;;;;52.00;26.73;;;;;;;2.44;100.00;98631.84;5078336;28;20106;-84
2023/12/03 02:02:10;;;;;;;49.63;26.00;;;;;;;2.32;100.00;98623.50;5081821;28;20055;-83
2023/12/03 02:04:54;;;;;;;50.45;26.80;;;;;;;2.36;100.00;98624.84;5082327;28;20098;-82
2023/12/03 02:07:38;;;;;;;46.63;25.80;;;;;;;2.36;100.00;98619.66;5082882;28;20052;-82
2023/12/03 02:10:22;;;;;;;54.25;26.35;;;;;;;2.31;100.00;98621.88;5078886;28;20043;-84
2023/12/03 02:13:06;;;;;;;51.00;26.00;;;;;;;2.41;100.00;98616.59;5087190;28;20104;-82
2023/12/03 02:15:50;;;;;;;58.45;27.15;;;;;;;2.36;100.00;98609.31;5083800;28;20040;-83
2023/12/03 02:18:35;;;;;;;54.20;27.38;;;;;;;2.32;100.00;98607.16;5081621;28;20090;-83
2023/12/03 02:21:19;;;;;;;54.05;27.30;;;;;;;2.37;100.00;98603.16;5079720;28;20165;-83
2023/12/03 02:24:03;;;;;;;53.28;27.75;;;;;;;2.31;100.00;98606.34;5084899;28;20043;-83
2023/12/03 02:26:47;;;;;;;55.38;26.73;;;;;;;2.32;100.00;98597.59;5078888;28;20116;-83
2023/12/03 02:29:31;;;;;;;52.47;26.15;;;;;;;2.30;100.00;98591.75;5083790;28;20048;-83
2023/12/03 02:32:15;;;;;;;49.75;27.10;;;;;;;2.43;100.00;98586.19;5083478;28;20043;-83
2023/12/03 02:34:59;;;;;;;55.92;27.98;;;;;;;2.47;100.00;98591.88;5085727;28;20059;-82
2023/12/03 02:37:43;;;;;;;52.78;27.13;;;;;;;2.48;100.00;98585.72;5078958;28;20125;-81
2023/12/03 02:40:32;;;;;;;52.90;27.23;;;;;;;2.54;100.00;98590.28;5077011;28;20071;-81
2023/12/03 02:43:16;;;;;;;51.42;27.50;;;;;;;2.49;100.00;98585.59;5079625;28;20086;-82
2023/12/03 02:46:00;;;;;;;57.35;28.38;;;;;;;2.43;100.00;98584.41;5081209;28;20071;-81
2023/12/03 02:48:45;;;;;;;54.28;28.50;;;;;;;2.50;100.00;98579.44;5071715;28;20071;-81
2023/12/03 02:51:29;;;;;;;52.83;28.23;;;;;;;2.45;100.00;98573.06;5078364;28;20039;-82
2023/12/03 02:54:13;;;;;;;56.00;27.60;;;;;;;2.38;100.00;98567.69;5085287;28;20043;-81
2023/12/03 02:56:57;;;;;;;53.40;27.80;;;;;;;2.36;100.00;98580.00;5081550;28;20044;-81
2023/12/03 02:59:41;;;;;;;48.90;25.38;;;;;;;2.42;100.00;98577.59;5082159;28;20078;-82
2023/12/03 03:02:25;;;;;;;46.45;23.55;;;;;;;2.47;100.00;98573.75;5076856;28;20077;-81
2023/12/03 03:05:09;;;;;;;52.25;26.73;;;;;;;2.42;100.00;98566.41;5082115;28;20533;-82
2023/12/03 03:07:53;;;;;;;50.17;25.75;;;;;;;2.32;100.00;98561.34;5082670;28;20126;-81
2023/12/03 03:10:38;;;;;;;48.65;25.58;;;;;;;2.39;100.00;98557.19;5078881;28;20111;-81
2023/12/03 03:13:21;;;;;;;49.13;25.38;;;;;;;2.25;100.00;98561.13;5083284;28;20051;-82
2023/12/03 03:16:06;;;;;;;47.45;24.58;;;;;;;2.28;100.00;98554.84;5082594;28;20114;-83
2023/12/03 03:18:50;;;;;;;51.53;25.35;;;;;;;2.19;100.00;98564.34;5081875;28;20178;-84
2023/12/03 03:21:38;;;;;;;46.10;23.50;;;;;;;2.28;100.00;98560.84;5078718;28;20367;-83
2023/12/03 03:24:22;;;;;;;47.95;24.17;;;;;;;2.22;100.00;98548.50;5081693;28;20047;-82
2023/12/03 03:27:06;;;;;;;49.80;24.50;;;;;;;2.33;100.00;98554.41;5083911;28;20047;-82
2023/12/03 03:29:50;;;;;;;51.70;23.65;;;;;;;2.30;100.00;98549.53;5081307;28;20410;-83
2023/12/03 03:32:35;;;;;;;45.78;23.60;;;;;;;2.25;100.00;98548.19;5080059;28;20039;-83
2023/12/03 03:35:19;;;;;;;45.13;22.98;;;;;;;2.36;100.00;98549.72;5084586;28;20087;-83
2023/12/03 03:38:03;;;;;;;43.88;23.55;;;;;;;2.33;100.00;98546.63;5086035;28;20093;-85
2023/12/03 03:40:47;;;;;;;46.15;22.00;;;;;;;2.30;100.00;98547.75;5079508;28;20066;-83
2023/12/03 03:43:30;;;;;;;55.67;24.33;;;;;;;2.27;100.00;98537.69;5079685;28;20071;-84
2023/12/03 03:46:14;;;;;;;59.75;24.88;;;;;;;2.28;100.00;98549.66;5082787;28;20535;-83
2023/12/03 03:48:58;;;;;;;50.13;24.23;;;;;;;2.22;100.00;98534.75;5080254;28;20039;-82
2023/12/03 03:51:42;;;;;;;69.70;26.05;;;;;;;2.42;100.00;98548.28;5077987;28;20112;-83
2023/12/03 03:54:27;;;;;;;43.08;21.48;;;;;;;2.48;100.00;98552.03;5085715;28;20122;-83
2023/12/03 03:57:11;;;;;;;39.85;21.27;;;;;;;2.50;100.00;98552.69;5079909;28;20040;-83
2023/12/03 03:59:55;;;;;;;42.42;21.25;;;;;;;2.46;100.00;98547.03;5077171;28;20121;-83
2023/12/03 04:02:39;;;;;;;38.17;20.92;;;;;;;2.49;100.00;98532.94;5075691;28;20408;-83
2023/12/03 04:05:23;;;;;;;41.20;21.30;;;;;;;2.57;100.00;98543.34;5083784;28;20067;-84
2023/12/03 04:08:07;;;;;;;46.17;22.52;;;;;;;2.61;100.00;98533.47;5082117;28;20050;-84
2023/12/03 04:10:51;;;;;;;43.15;21.52;;;;;;;2.66;100.00;98539.81;5076885;28;20042;-83
2023/12/03 04:13:36;;;;;;;43.45;22.20;;;;;;;2.60;100.00;98539.63;5082077;28;20248;-83
2023/12/03 04:16:22;;;;;;;47.60;23.23;;;;;;;2.60;100.00;98543.03;5079250;28;20837;-83
2023/12/03 04:19:06;;;;;;;43.40;22.92;;;;;;;2.53;100.00;98531.66;5079024;28;20035;-83
2023/12/03 04:21:50;;;;;;;42.70;21.90;;;;;;;2.68;100.00;98524.94;5077010;28;20097;-82
2023/12/03 04:24:34;;;;;;;41.88;20.63;;;;;;;2.70;100.00;98530.75;5081085;28;20065;-82
2023/12/03 04:27:18;;;;;;;39.75;21.55;;;;;;;2.59;100.00;98533.66;5076307;28;20050;-83
2023/12/03 04:30:03;;;;;;;43.08;21.80;;;;;;;2.70;100.00;98532.56;5077802;28;20086;-82
2023/12/03 04:32:47;;;;;;;42.60;21.17;;;;;;;2.57;100.00;98522.63;5078178;28;20051;-83
2023/12/03 04:35:31;;;;;;;40.58;20.08;;;;;;;2.59;100.00;98525.88;5075469;28;20042;-81
2023/12/03 04:38:15;;;;;;;39.72;20.75;;;;;;;2.56;100.00;98521.81;5073672;28;20105;-82
2023/12/03 04:40:59;;;;;;;44.72;21.58;;;;;;;2.56;100.00;98523.59;5077719;28;20078;-82
2023/12/03 04:43:43;;;;;;;41.72;21.27;;;;;;;2.63;100.00;98513.41;5078458;28;20496;-83
2023/12/03 04:46:27;;;;;;;40.35;21.88;;;;;;;2.63;100.00;98516.00;5075337;28;20601;-83
2023/12/03 04:49:11;;;;;;;41.03;20.10;;;;;;;2.55;100.00;98511.59;5070927;28;20173;-82
2023/12/03 04:51:55;;;;;;;45.10;21.00;;;;;;;2.70;100.00;98517.81;5079205;28;20124;-84
2023/12/03 04:54:39;;;;;;;39.83;19.30;;;;;;;2.66;100.00;98511.31;5075983;28;20043;-84
2023/12/03 04:57:23;;;;;;;38.47;20.48;;;;;;;2.59;100.00;98510.31;5082917;28;20589;-83
2023/12/03 05:00:07;;;;;;;40.70;19.70;;;;;;;2.65;100.00;98514.06;5078913;28;20059;-82
2023/12/03 05:02:52;;;;;;;43.58;20.92;;;;;;;2.75;100.00;98521.69;5080171;28;20540;-82
2023/12/03 05:05:36;;;;;;;38.25;19.15;;;;;;;2.67;100.00;98512.94;5082561;28;20051;-82
2023/12/03 05:08:20;;;;;;;38.38;19.50;;;;;;;2.78;100.00;98517.03;5085189;28;20046;-81
2023/12/03 05:11:05;;;;;;;39.75;18.90;;;;;;;2.76;100.00;98521.56;5083490;28;20101;-81
2023/12/03 05:13:49;;;;;;;37.00;18.65;;;;;;;2.75;100.00;98506.97;5080224;28;20039;-82
2023/12/03 05:16:33;;;;;;;41.38;20.00;;;;;;;2.86;100.00;98524.03;5081836;28;20448;-84
2023/12/03 05:19:20;;;;;;;41.95;19.77;;;;;;;2.87;100.00;98523.03;5087421;28;20101;-84
2023/12/03 05:22:05;;;;;;;39.83;19.23;;;;;;;2.85;100.00;98512.03;5081495;28;20161;-83
2023/12/03 05:24:49;;;;;;;42.03;20.30;;;;;;;2.89;100.00;98513.34;5082845;28;20047;-84
2023/12/03 05:27:33;;;;;;;43.90;20.58;;;;;;;2.82;100.00;98512.34;5079131;28;20047;-83
2023/12/03 05:30:18;;;;;;;42.72;19.90;;;;;;;2.85;100.00;98514.63;5081216;28;20042;-83
2023/12/03 05:33:02;;;;;;;43.55;19.30;;;;;;;2.87;100.00;98504.91;5081103;28;20040;-81
2023/12/03 05:35:46;;;;;;;47.85;21.38;;;;;;;2.88;100.00;98509.13;5082118;28;20603;-81
2023/12/03 05:38:30;;;;;;;48.35;20.90;;;;;;;2.96;100.00;98501.38;5079240;28;20121;-83
2023/12/03 05:41:14;;;;;;;44.00;19.67;;;;;;;2.99;100.00;98510.59;5075246;28;20090;-82
2023/12/03 05:43:58;;;;;;;39.97;19.30;;;;;;;3.04;100.00;98508.34;5082655;28;20040;-81
2023/12/03 05:46:42;;;;;;;43.95;20.20;;;;;;;3.03;100.00;98503.31;5079272;28;20098;-81
2023/12/03 05:49:26;;;;;;;48.00;19.80;;;;;;;3.06;100.00;98497.81;5080429;28;20178;-84
2023/12/03 05:52:11;;;;;;;43.63;19.45;;;;;;;3.08;100.00;98493.28;5080802;28;20034;-85
2023/12/03 05:54:55;;;;;;;43.67;19.67;;;;;;;3.08;100.00;98491.50;5083375;28;20145;-88
2023/12/03 05:57:39;;;;;;;46.05;20.38;;;;;;;3.07;100.00;98494.25;5079538;28;20162;-82
2023/12/03 06:00:23;;;;;;;45.30;19.27;;;;;;;3.12;100.00;98497.16;5079782;28;20047;-84
2023/12/03 06:03:07;;;;;;;47.28;21.08;;;;;;;3.12;100.00;98499.75;5084678;28;20063;-82
2023/12/03 06:05:51;;;;;;;70.72;21.85;;;;;;;2.93;100.00;98491.28;5079473;28;20039;-83
2023/12/03 06:08:35;;;;;;;39.50;19.13;;;;;;;3.10;100.00;98491.34;5080331;28;20043;-82
2023/12/03 06:11:19;;;;;;;43.05;18.58;;;;;;;3.18;100.00;98488.78;5080551;28;20067;-83
2023/12/03 06:14:04;;;;;;;44.55;18.10;;;;;;;3.25;100.00;98497.53;5079949;28;20051;-81
2023/12/03 06:16:48;;;;;;;44.15;18.98;;;;;;;3.24;100.00;98490.72;5078817;28;21889;-81
2023/12/03 06:19:32;;;;;;;44.38;19.60;;;;;;;3.29;100.00;98491.03;5078761;28;20051;-82
2023/12/03 06:22:16;;;;;;;46.00;19.58;;;;;;;3.26;100.00;98490.56;5080109;28;20098;-80
2023/12/03 06:25:00;;;;;;;48.53;19.42;;;;;;;3.24;100.00;98485.53;5077440;28;20043;-82
2023/12/03 06:27:44;;;;;;;42.35;19.85;;;;;;;3.20;100.00;98488.59;5077624;28;20060;-83
2023/12/03 06:30:28;;;;;;;54.72;20.48;;;;;;;3.28;100.00;98489.41;5082096;28;20046;-81
2023/12/03 06:33:13;;;;;;;46.15;19.80;;;;;;;3.27;100.00;98485.19;5082742;28;20035;-80
2023/12/03 06:35:57;;;;;;;48.50;20.00;;;;;;;3.24;100.00;98480.34;5082341;28;20109;-82
2023/12/03 06:38:41;;;;;;;45.22;19.52;;;;;;;3.27;100.00;98476.63;5081478;28;20039;-80
2023/12/03 06:41:25;;;;;;;45.08;19.35;;;;;;;3.26;100.00;98475.78;5082481;28;20418;-79
2023/12/03 06:44:09;;;;;;;45.63;18.58;;;;;;;3.34;100.00;98468.97;5082057;28;20119;-81
2023/12/03 06:46:53;;;;;;;50.50;18.92;;;;;;;3.31;100.00;98471.91;5076172;28;20456;-81
2023/12/03 06:49:37;;;;;;;44.17;19.25;;;;;;;3.33;100.00;98472.56;5077577;28;20052;-81
2023/12/03 06:52:21;;;;;;;51.08;19.50;;;;;;;3.38;100.00;98467.72;5078442;28;20046;-82
2023/12/03 06:55:06;;;;;;;47.42;19.52;;;;;;;3.40;100.00;98461.38;5082484;28;20065;-82
2023/12/03 06:57:51;;;;;;;45.00;17.83;;;;;;;3.42;100.00;98471.59;5079514;28;20031;-81
2023/12/03 07:00:35;;;;;;;43.22;18.48;;;;;;;3.45;100.00;98460.09;5081097;28;20070;-82
2023/12/03 07:03:19;;;;;;;50.83;18.48;;;;;;;3.38;100.00;98467.72;5078413;28;20039;-81
2023/12/03 07:06:03;;;;;;;60.88;20.73;;;;;;;3.40;100.00;98469.16;5076378;28;20098;-80
2023/12/03 07:08:47;;;;;;;45.95;19.02;;;;;;;3.43;100.00;98466.22;5076352;28;20043;-79
2023/12/03 07:11:31;;;;;;;48.28;18.75;;;;;;;3.43;100.00;98471.41;5088704;28;20043;-82
2023/12/03 07:14:15;;;;;;;45.55;19.45;;;;;;;3.50;100.00;98465.59;5086084;28;20031;-81
2023/12/03 07:16:59;;;;;;;59.90;19.95;;;;;;;3.46;100.00;98466.91;5081822;28;20548;-82
2023/12/03 07:19:43;;;;;;;50.42;20.52;;;;;;;3.52;100.00;98468.84;5076685;28;20102;-80
2023/12/03 07:22:28;;;;;;;49.42;19.98;;;;;;;3.54;100.00;98470.31;5083901;28;20074;-80
2023/12/03 07:25:12;;;;;;;50.70;20.17;;;;;;;3.59;100.00;98480.19;5078083;28;20406;-80
2023/12/03 07:27:56;;;;;;;57.22;18.67;;;;;;;3.54;100.00;98474.66;5081407;28;20046;-82
2023/12/03 07:30:41;;;;;;;53.45;23.55;;;;;;;3.50;100.00;98474.19;5077063;28;20074;-82
2023/12/03 07:33:26;;;;;;;47.85;18.55;;;;;;;3.49;100.00;98469.97;5073798;28;20070;-80
2023/12/03 07:36:10;;;;;;;43.80;17.77;;;;;;;3.52;100.00;98469.63;5078913;28;20042;-81
2023/12/03 07:38:54;;;;;;;47.58;18.95;;;;;;;3.52;100.00;98480.00;5078271;28;20039;-82
2023/12/03 07:41:38;;;;;;;49.65;19.80;;;;;;;3.54;100.00;98478.09;5079835;28;20089;-81
2023/12/03 07:44:22;;;;;;;47.60;19.25;;;;;;;3.52;100.00;98487.78;5076701;28;20098;-81
2023/12/03 07:47:07;;;;;;;48.97;19.65;;;;;;;3.48;100.00;98480.53;5075975;28;20089;-82
2023/12/03 07:49:51;;;;;;;42.20;17.55;;;;;;;3.55;100.00;98482.31;5077957;28;20043;-81
2023/12/03 07:52:35;;;;;;;45.95;18.80;;;;;;;3.57;100.00;98477.75;5076895;28;20047;-82
2023/12/03 07:55:19;;;;;;;44.65;18.83;;;;;;;3.54;100.00;98482.47;5072084;28;20135;-81
2023/12/03 07:58:03;;;;;;;46.25;18.38;;;;;;;3.63;100.00;98485.84;5073067;28;20114;-82
2023/12/03 08:00:47;;;;;;;46.47;18.42;;;;;;;3.62;100.00;98479.84;5075352;28;20104;-80
2023/12/03 08:03:31;;;;;;;52.20;18.42;;;;;;;3.58;100.00;98483.75;5078091;28;20047;-81
2023/12/03 08:06:15;;;;;;;43.47;16.10;;;;;;;3.54;100.00;98483.28;5076240;28;20071;-82
2023/12/03 08:09:00;;;;;;;33.22;13.45;;;;;;;3.58;100.00;98494.13;5082816;28;20051;-81
2023/12/03 08:11:44;;;;;;;31.50;12.40;;;;;;;3.50;100.00;98481.16;5075908;28;20047;-81
2023/12/03 08:14:28;;;;;;;29.25;12.07;;;;;;;3.50;100.00;98487.16;5078577;28;20052;-83
2023/12/03 08:17:12;;;;;;;31.10;13.00;;;;;;;3.61;100.00;98477.44;5079434;28;20039;-82
2023/12/03 08:19:57;;;;;;;32.58;13.40;;;;;;;3.64;100.00;98490.06;5076841;28;20513;-84
2023/12/03 08:22:41;;;;;;;28.13;12.02;;;;;;;3.68;100.00;98496.56;5076095;28;20401;-83
2023/12/03 08:25:25;;;;;;;27.38;12.68;;;;;;;3.70;100.00;98492.00;5071188;28;20097;-81
2023/12/03 08:28:09;;;;;;;32.05;13.30;;;;;;;3.65;100.00;98491.69;5083744;28;20047;-82
2023/12/03 08:30:53;;;;;;;33.33;14.85;;;;;;;3.77;100.00;98493.00;5081031;28;20055;-84
2023/12/03 08:33:37;;;;;;;46.53;18.35;;;;;;;3.59;100.00;98500.94;5077891;28;20096;-84
2023/12/03 08:36:21;;;;;;;37.38;16.40;;;;;;;3.74;100.00;98493.31;5084783;28;20094;-85
2023/12/03 08:39:08;;;;;;;30.67;13.52;;;;;;;3.81;100.00;98494.28;5085423;28;20039;-84
2023/12/03 08:41:52;;;;;;;22.75;10.82;;;;;;;3.77;100.00;98481.78;5076012;28;20505;-83
2023/12/03 08:44:36;;;;;;;35.53;15.02;;;;;;;3.80;100.00;98479.69;5076521;28;20105;-83
2023/12/03 08:47:20;;;;;;;31.67;14.45;;;;;;;3.86;100.00;98483.41;5079594;28;20119;-84
2023/12/03 08:50:05;;;;;;;20.55;10.45;;;;;;;3.94;100.00;98482.59;5079905;28;20102;-83
2023/12/03 08:52:49;;;;;;;22.38;10.52;;;;;;;3.97;100.00;98477.84;5083140;28;20040;-80
2023/12/03 08:55:33;;;;;;;23.55;10.18;;;;;;;3.91;100.00;98477.69;5082163;28;20448;-83
2023/12/03 08:58:17;;;;;;;27.23;11.50;;;;;;;4.06;100.00;98481.25;5079998;28;20093;-83
2023/12/03 09:01:01;;;;;;;31.75;13.32;;;;;;;4.07;100.00;98484.66;5079726;28;20422;-81
2023/12/03 09:03:46;;;;;;;44.72;19.17;;;;;;;4.02;100.00;98487.75;5082063;28;20547;-82
2023/12/03 09:06:30;;;;;;;35.28;17.10;;;;;;;4.09;100.00;98486.09;5083205;28;20401;-81
2023/12/03 09:09:14;;;;;;;35.70;14.35;;;;;;;4.07;100.00;98482.88;5074805;28;20055;-81
2023/12/03 09:11:58;;;;;;;34.70;14.80;;;;;;;4.17;100.00;98485.28;5075354;28;20051;-82
2023/12/03 09:14:43;;;;;;;34.50;17.17;;;;;;;4.20;100.00;98478.94;5071138;28;20162;-82
2023/12/03 09:17:27;;;;;;;43.88;18.52;;;;;;;4.19;100.00;98480.72;5075504;28;20044;-82
2023/12/03 09:20:11;;;;;;;43.90;21.05;;;;;;;4.22;100.00;98472.59;5078116;28;20047;-81
2023/12/03 09:22:55;;;;;;;42.15;19.00;;;;;;;4.12;100.00;98472.78;5081176;28;20134;-82
2023/12/03 09:25:40;;;;;;;31.83;15.23;;;;;;;4.10;100.00;98472.13;5080771;28;20051;-81
2023/12/03 09:28:24;;;;;;;30.15;15.27;;;;;;;4.16;100.00;98475.06;5086283;28;20141;-81
2023/12/03 09:31:08;;;;;;;26.15;13.27;;;;;;;4.09;100.00;98483.50;5080449;28;20039;-81
2023/12/03 09:33:52;;;;;;;27.88;13.50;;;;;;;4.17;100.00;98474.09;5074675;28;20070;-81
2023/12/03 09:36:36;;;;;;;40.55;14.88;;;;;;;4.09;100.00;98475.72;5072494;28;20402;-80
2023/12/03 09:39:21;;;;;;;24.88;12.35;;;;;;;4.14;100.00;98473.44;5076373;28;20052;-81
2023/12/03 09:42:07;;;;;;;114.72;19.63;;;;;;;3.97;100.00;98477.84;5083167;28;20390;-82
2023/12/03 09:45:06;;;;;;;26.65;13.80;;;;;;;4.17;100.00;98471.50;5084508;28;20051;-82
2023/12/03 09:47:55;;;;;;;37.80;14.40;;;;;;;4.25;100.00;98474.06;5080768;28;20043;-83
2023/12/03 09:50:42;;;;;;;35.97;16.63;;;;;;;4.23;100.00;98476.00;5082543;28;20047;-84
2023/12/03 09:53:30;;;;;;;23.75;12.98;;;;;;;4.28;100.00;98464.16;5090572;28;20047;-83
2023/12/03 09:56:16;;;;;;;26.55;11.48;;;;;;;4.26;100.00;98473.06;5089230;28;20039;-83
2023/12/03 09:59:00;;;;;;;25.90;11.55;;;;;;;4.17;100.00;98474.88;5083911;28;20051;-86
2023/12/03 10:01:46;;;;;;;21.00;11.05;;;;;;;4.25;100.00;98474.06;5085473;28;20098;-89
2023/12/03 10:04:30;;;;;;;18.45;9.65;;;;;;;4.25;100.00;98479.25;5082947;28;20094;-85
2023/12/03 10:07:15;;;;;;;20.35;9.50;;;;;;;4.40;100.00;98472.38;5083352;28;20428;-87
2023/12/03 10:10:04;;;;;;;16.30;9.00;;;;;;;4.47;100.00;98466.50;5085378;28;20045;-88
2023/12/03 10:12:50;;;;;;;17.45;8.73;;;;;;;4.61;100.00;98478.78;5084812;28;20501;-85
2023/12/03 10:15:34;;;;;;;16.60;8.98;;;;;;;4.69;100.00;98473.53;5064488;28;20059;-82
2023/12/03 10:18:19;;;;;;;18.70;9.85;;;;;;;4.83;100.00;98466.00;5080378;28;20043;-87
2023/12/03 10:21:07;;;;;;;21.02;10.05;;;;;;;4.84;100.00;98478.03;5080688;28;20071;-83
2023/12/03 10:23:59;;;;;;;19.75;10.32;;;;;;;4.88;100.00;98484.50;5083429;28;20116;-83
2023/12/03 10:26:52;;;;;;;18.55;9.85;;;;;;;4.88;100.00;98474.09;5078177;28;20134;-82
2023/12/03 10:29:37;;;;;;;23.00;10.48;;;;;;;4.89;100.00;98483.50;5091212;28;20039;-81
2023/12/03 10:32:22;;;;;;;17.30;9.30;;;;;;;4.99;100.00;98484.13;5087768;28;20046;-85
2023/12/03 10:35:08;;;;;;;20.30;9.93;;;;;;;5.06;100.00;98493.81;5083265;28;20047;-86
2023/12/03 10:37:52;;;;;;;16.15;8.98;;;;;;;5.13;100.00;98486.97;5083214;28;20509;-85
2023/12/03 10:40:37;;;;;;;18.10;9.45;;;;;;;5.10;100.00;98497.69;5077541;28;20109;-86
2023/12/03 10:43:22;;;;;;;16.73;9.57;;;;;;;5.15;100.00;98498.00;5077866;28;20472;-85
2023/12/03 10:46:11;;;;;;;16.95;8.55;;;;;;;5.00;100.00;98496.13;5095400;28;20043;-86
2023/12/03 10:48:55;;;;;;;14.45;7.20;;;;;;;4.96;100.00;98502.66;5078414;28;20109;-86
2023/12/03 10:51:44;;;;;;;16.48;7.90;;;;;;;4.94;100.00;98503.81;5087143;28;20055;-88
2023/12/03 10:54:28;;;;;;;22.73;10.63;;;;;;;5.04;100.00;98503.59;5083969;28;20100;-86
2023/12/03 10:57:15;;;;;;;34.33;14.68;;;;;;;5.05;100.00;98500.84;5082654;28;20035;-86
2023/12/03 11:00:02;;;;;;;28.33;13.10;;;;;;;5.05;100.00;98500.00;5081338;28;20043;-86
2023/12/03 11:02:56;;;;;;;35.65;16.42;;;;;;;5.18;100.00;98499.44;5079912;28;20059;-84
2023/12/03 11:05:52;;;;;;;31.73;15.30;;;;;;;5.34;100.00;98491.53;5082925;28;20465;-84
2023/12/03 11:08:38;;;;;;;20.80;9.93;;;;;;;5.45;100.00;98485.09;5079177;28;20055;-85
2023/12/03 11:11:22;;;;;;;21.95;11.23;;;;;;;5.46;100.00;98484.09;5081224;28;20142;-85
2023/12/03 11:14:06;;;;;;;21.73;9.98;;;;;;;5.44;100.00;98478.28;5077543;28;20043;-87
2023/12/03 11:17:08;;;;;;;20.17;11.35;;;;;;;5.56;100.00;98470.84;5080695;28;20149;-85
2023/12/03 11:19:57;;;;;;;25.90;13.23;;;;;;;5.66;100.00;98468.00;5079768;28;20082;-88
2023/12/03 11:23:37;;;;;;;24.17;13.43;;;;;;;5.77;100.00;98464.97;5092252;28;20046;-87
2023/12/03 11:26:24;;;;;;;22.38;12.35;;;;;;;5.73;100.00;98455.91;5048916;28;20048;-90
2023/12/03 11:29:08;;;;;;;16.98;9.57;;;;;;;5.70;100.00;98466.69;5078425;28;20056;-85
2023/12/03 11:31:52;;;;;;;17.90;9.50;;;;;;;5.63;100.00;98463.16;5083231;28;22172;-85
2023/12/03 11:34:37;;;;;;;20.77;11.15;;;;;;;5.70;100.00;98451.06;5083588;28;20084;-85
2023/12/03 11:37:21;;;;;;;16.35;10.07;;;;;;;5.70;100.00;98448.47;5082078;28;20140;-84
2023/12/03 11:40:09;;;;;;;20.50;11.32;;;;;;;5.78;100.00;98453.56;5081554;28;20115;-85
2023/12/03 11:42:53;;;;;;;21.23;10.80;;;;;;;5.90;100.00;98458.34;5081650;28;20543;-85
2023/12/03 11:45:43;;;;;;;17.75;10.23;;;;;;;5.97;100.00;98464.47;5073779;28;20056;-84
2023/12/03 11:48:27;;;;;;;16.05;9.55;;;;;;;5.87;100.00;98451.69;5080028;28;20047;-85
2023/12/03 11:51:11;;;;;;;15.65;8.18;;;;;;;5.88;100.00;98444.69;5083084;28;20481;-85
2023/12/03 11:54:06;;;;;;;17.63;9.38;;;;;;;5.88;100.00;98434.25;5083463;28;20130;-86
2023/12/03 11:56:51;;;;;;;16.50;9.20;;;;;;;6.02;100.00;98427.50;5082361;28;20468;-85
2023/12/03 11:59:34;;;;;;;15.50;9.00;;;;;;;6.05;100.00;98433.13;5084410;28;20039;-84
2023/12/03 12:02:19;;;;;;;17.95;9.75;;;;;;;5.80;100.00;98430.75;5077097;28;20604;-85
2023/12/03 12:05:03;;;;;;;16.98;8.82;;;;;;;6.02;100.00;98422.28;5078414;28;20048;-85
2023/12/03 12:08:04;;;;;;;18.00;9.85;;;;;;;5.79;100.00;98426.53;5077771;28;20052;-86
2023/12/03 12:10:50;;;;;;;21.80;10.65;;;;;;;5.99;100.00;98423.41;5080040;28;20126;-85
2023/12/03 12:13:34;;;;;;;14.05;8.30;;;;;;;6.17;100.00;98417.84;5079347;28;20069;-86
2023/12/03 12:16:18;;;;;;;12.90;7.80;;;;;;;6.11;100.00;98416.78;5080581;28;20067;-87
2023/12/03 12:19:04;;;;;;;15.85;8.48;;;;;;;6.23;100.00;98413.72;5085132;28;20027;-90
2023/12/03 12:21:52;;;;;;;17.05;8.68;;;;;;;6.34;100.00;98415.03;5083870;28;20094;-90
2023/12/03 12:24:36;;;;;;;20.27;11.60;;;;;;;6.42;100.00;98413.13;5087541;28;20047;-89
2023/12/03 12:27:33;;;;;;;17.25;10.07;;;;;;;6.53;100.00;98411.06;5087286;28;20046;-88
2023/12/03 12:30:24;;;;;;;15.77;9.20;;;;;;;6.27;100.00;98394.09;5080256;28;20046;-90
2023/12/03 12:33:09;;;;;;;35.67;21.27;;;;;;;6.43;100.00;98412.16;5082571;28;20043;-88
2023/12/03 12:36:00;;;;;;;44.45;24.95;;;;;;;6.37;100.00;98399.03;5082499;28;20027;-89
2023/12/03 12:38:44;;;;;;;20.38;11.32;;;;;;;6.45;100.00;98395.50;5077539;28;20134;-89